logo
Rechercher aéroport 
image banner adimage banner adimage banner ad
image banner ad

SDZG - Pedro Teixeira Castelo Regional Taua

Situé à Taua, Brazil

ICAO - SDZG, IATA -

Données fournies par Airmate  

Information générale

Coordonnées: S5°55'60" W40°17'51"
Élévation : 1457 feet MSL.
Variation magnétique : -21.516666667° East
Voir autres Aéroports à Ceará

Données opérationnelles

Special qualification required
Heure actuelle UTC:
Heure actuelle locale:
Météo à : - ( 0 km )
METAR: SUMU 232006Z 12008KT 3000 BR NSC 13/13 Q1018 NOSIG
Voir NOTAMs / SUP AIP / TFR affectant cet aéroport [VIEW]
Fréquences de communication: [VIEW]

Pistes:

Identifiant RWYQFULongueur (ft)Largeur (ft)SurfaceLDA (ft)
094134197ASPH
274134197ASPH

Coordonnées de l'aéroport

Adresse: Taua Brazil

Vue satellite de SDZG